CYHI

Ulukhaktok Holman Airport

Ulukhaktok, Northwest Territories, Canada
METAR CYHI 230100Z VRB02KT 6SM -SN BKN044 M23/M27 A2950 RMK SN2SC5 -23.1/-23.6/20/TR/TR LOOSE/LST STFD OBS/NXT 231500Z SLP997
Observed Flight Rules
Feb-23 @ 01:00 UTC (14 hours ago) Visual Flight Rules
Wind Visibility Clouds Conditions
Variable at 2 knots 6 miles
  • Broken at 4,400' AGL
  • Light Snow
Temperatures Readings
Current -23°C / -9°F
Dewpoint -27°C / -17°F
Humidity 70%
Altimeter 29.5" Hg
Pressure 999.7 hPa
Elevation 36
METAR CYHI 230100Z VRB02KT 6SM -SN BKN044 M23/M27 A2950 RMK SN2SC5 -23.1/-23.6/20/TR/TR LOOSE/LST STFD OBS/NXT 231500Z SLP997
Observed Flight Rules
Feb-23 @ 01:00 UTC
(14 hours ago)
VFR
Wind Visibility
Variable at 2 knots 6 miles
Clouds
  • Broken at 4,400' AGL
Conditions
  • Light Snow
Temperature Dewpoint
-23°C / -9°F -27°C / -17°F
Humidity Altimeter Pressure
70% 29.5" Hg 999.7 hPa